sensor_id;sensor_type;location;lat;lon;timestamp;temperature;humidity
75927;DHT22;64605;48.296;16.416;2023-04-08T00:01:01;7.20;78.60
75927;DHT22;64605;48.296;16.416;2023-04-08T00:03:27;7.20;78.90
75927;DHT22;64605;48.296;16.416;2023-04-08T00:05:53;7.10;77.90
75927;DHT22;64605;48.296;16.416;2023-04-08T00:08:19;6.90;78.40
75927;DHT22;64605;48.296;16.416;2023-04-08T00:10:44;6.90;80.00
75927;DHT22;64605;48.296;16.416;2023-04-08T00:13:10;6.90;79.80
75927;DHT22;64605;48.296;16.416;2023-04-08T00:15:36;6.90;80.50
75927;DHT22;64605;48.296;16.416;2023-04-08T00:18:02;6.80;79.70
75927;DHT22;64605;48.296;16.416;2023-04-08T00:20:28;6.70;79.90
75927;DHT22;64605;48.296;16.416;2023-04-08T00:22:53;6.60;81.20
75927;DHT22;64605;48.296;16.416;2023-04-08T00:25:19;6.50;82.60
75927;DHT22;64605;48.296;16.416;2023-04-08T00:27:45;6.50;83.30
75927;DHT22;64605;48.296;16.416;2023-04-08T00:30:10;6.50;82.50
75927;DHT22;64605;48.296;16.416;2023-04-08T00:32:36;6.50;82.30
75927;DHT22;64605;48.296;16.416;2023-04-08T00:35:03;6.50;82.50
75927;DHT22;64605;48.296;16.416;2023-04-08T00:37:29;6.40;82.50
75927;DHT22;64605;48.296;16.416;2023-04-08T00:39:55;6.40;82.80
75927;DHT22;64605;48.296;16.416;2023-04-08T00:42:21;6.30;82.80
75927;DHT22;64605;48.296;16.416;2023-04-08T00:44:47;6.40;83.90
75927;DHT22;64605;48.296;16.416;2023-04-08T00:47:14;6.50;83.60
75927;DHT22;64605;48.296;16.416;2023-04-08T00:49:41;6.50;83.60
75927;DHT22;64605;48.296;16.416;2023-04-08T00:52:07;6.50;83.80
75927;DHT22;64605;48.296;16.416;2023-04-08T00:54:32;6.50;82.60
75927;DHT22;64605;48.296;16.416;2023-04-08T00:56:58;6.50;84.50
75927;DHT22;64605;48.296;16.416;2023-04-08T00:59:25;6.50;84.80
75927;DHT22;64605;48.296;16.416;2023-04-08T01:04:48;6.40;84.10
75927;DHT22;64605;48.296;16.416;2023-04-08T01:07:21;6.40;84.50
75927;DHT22;64605;48.296;16.416;2023-04-08T01:09:52;6.40;84.10
75927;DHT22;64605;48.296;16.416;2023-04-08T01:12:25;6.40;84.20
75927;DHT22;64605;48.296;16.416;2023-04-08T01:15:03;6.40;84.30
75927;DHT22;64605;48.296;16.416;2023-04-08T01:17:30;6.30;83.10
75927;DHT22;64605;48.296;16.416;2023-04-08T01:19:59;6.20;82.90
75927;DHT22;64605;48.296;16.416;2023-04-08T01:23:02;6.20;84.30
75927;DHT22;64605;48.296;16.416;2023-04-08T01:25:35;6.20;83.80
75927;DHT22;64605;48.296;16.416;2023-04-08T01:28:08;6.10;83.60
75927;DHT22;64605;48.296;16.416;2023-04-08T01:30:37;6.10;83.60
75927;DHT22;64605;48.296;16.416;2023-04-08T01:33:04;6.10;84.50
75927;DHT22;64605;48.296;16.416;2023-04-08T01:35:31;6.10;85.30
75927;DHT22;64605;48.296;16.416;2023-04-08T01:37:58;6.20;85.70
75927;DHT22;64605;48.296;16.416;2023-04-08T01:40:25;6.30;85.40
75927;DHT22;64605;48.296;16.416;2023-04-08T01:42:53;6.20;83.80
75927;DHT22;64605;48.296;16.416;2023-04-08T01:45:20;6.20;84.80
75927;DHT22;64605;48.296;16.416;2023-04-08T01:47:47;6.20;84.90
75927;DHT22;64605;48.296;16.416;2023-04-08T01:50:15;6.10;84.60
75927;DHT22;64605;48.296;16.416;2023-04-08T01:52:43;6.10;84.90
75927;DHT22;64605;48.296;16.416;2023-04-08T01:55:09;6.10;85.30
75927;DHT22;64605;48.296;16.416;2023-04-08T01:57:37;6.10;84.50
75927;DHT22;64605;48.296;16.416;2023-04-08T02:00:11;6.10;84.30
75927;DHT22;64605;48.296;16.416;2023-04-08T02:02:38;6.10;83.90
75927;DHT22;64605;48.296;16.416;2023-04-08T02:05:05;6.00;83.40
75927;DHT22;64605;48.296;16.416;2023-04-08T02:07:31;6.00;83.50
75927;DHT22;64605;48.296;16.416;2023-04-08T02:09:57;5.90;83.00
75927;DHT22;64605;48.296;16.416;2023-04-08T02:12:23;5.90;82.70
75927;DHT22;64605;48.296;16.416;2023-04-08T02:14:49;5.80;82.80
75927;DHT22;64605;48.296;16.416;2023-04-08T02:17:24;5.80;82.90
75927;DHT22;64605;48.296;16.416;2023-04-08T02:22:43;5.80;83.70
75927;DHT22;64605;48.296;16.416;2023-04-08T02:25:13;5.70;82.90
75927;DHT22;64605;48.296;16.416;2023-04-08T02:27:40;5.70;83.00
75927;DHT22;64605;48.296;16.416;2023-04-08T02:30:07;5.60;82.30
75927;DHT22;64605;48.296;16.416;2023-04-08T02:32:35;5.70;82.90
75927;DHT22;64605;48.296;16.416;2023-04-08T02:35:01;5.60;82.80
75927;DHT22;64605;48.296;16.416;2023-04-08T02:37:29;5.60;82.90
75927;DHT22;64605;48.296;16.416;2023-04-08T02:39:55;5.60;82.60
75927;DHT22;64605;48.296;16.416;2023-04-08T02:42:21;5.60;82.90
75927;DHT22;64605;48.296;16.416;2023-04-08T02:44:46;5.60;83.40
75927;DHT22;64605;48.296;16.416;2023-04-08T02:47:12;5.60;83.30
75927;DHT22;64605;48.296;16.416;2023-04-08T02:49:38;5.60;82.90
75927;DHT22;64605;48.296;16.416;2023-04-08T02:52:03;5.60;84.20
75927;DHT22;64605;48.296;16.416;2023-04-08T02:54:29;5.60;83.40
75927;DHT22;64605;48.296;16.416;2023-04-08T02:56:55;5.50;83.40
75927;DHT22;64605;48.296;16.416;2023-04-08T02:59:21;5.50;83.70
75927;DHT22;64605;48.296;16.416;2023-04-08T03:01:46;5.50;84.00
75927;DHT22;64605;48.296;16.416;2023-04-08T03:04:12;5.40;82.50
75927;DHT22;64605;48.296;16.416;2023-04-08T03:06:38;5.40;84.00
75927;DHT22;64605;48.296;16.416;2023-04-08T03:09:03;5.40;83.60
75927;DHT22;64605;48.296;16.416;2023-04-08T03:11:30;5.30;82.90
75927;DHT22;64605;48.296;16.416;2023-04-08T03:13:56;5.30;83.50
75927;DHT22;64605;48.296;16.416;2023-04-08T03:16:22;5.30;82.60
75927;DHT22;64605;48.296;16.416;2023-04-08T03:18:49;5.30;84.00
75927;DHT22;64605;48.296;16.416;2023-04-08T03:21:16;5.30;83.20
75927;DHT22;64605;48.296;16.416;2023-04-08T03:23:41;5.30;83.00
75927;DHT22;64605;48.296;16.416;2023-04-08T03:26:07;5.20;82.70
75927;DHT22;64605;48.296;16.416;2023-04-08T03:28:33;5.30;83.90
75927;DHT22;64605;48.296;16.416;2023-04-08T03:30:58;5.30;82.90
75927;DHT22;64605;48.296;16.416;2023-04-08T03:33:25;5.30;83.20
75927;DHT22;64605;48.296;16.416;2023-04-08T03:35:53;5.30;84.00
75927;DHT22;64605;48.296;16.416;2023-04-08T03:38:18;5.30;84.00
75927;DHT22;64605;48.296;16.416;2023-04-08T03:40:44;5.30;82.60
75927;DHT22;64605;48.296;16.416;2023-04-08T03:43:10;5.30;83.10
75927;DHT22;64605;48.296;16.416;2023-04-08T03:45:36;5.30;83.50
75927;DHT22;64605;48.296;16.416;2023-04-08T03:48:02;5.30;84.00
75927;DHT22;64605;48.296;16.416;2023-04-08T03:50:28;5.30;82.90
75927;DHT22;64605;48.296;16.416;2023-04-08T03:52:53;5.30;82.20
75927;DHT22;64605;48.296;16.416;2023-04-08T03:55:19;5.30;83.10
75927;DHT22;64605;48.296;16.416;2023-04-08T03:57:45;5.30;83.00
75927;DHT22;64605;48.296;16.416;2023-04-08T04:00:11;5.30;83.10
75927;DHT22;64605;48.296;16.416;2023-04-08T04:02:36;5.30;82.20
75927;DHT22;64605;48.296;16.416;2023-04-08T04:05:02;5.40;83.20
75927;DHT22;64605;48.296;16.416;2023-04-08T04:07:28;5.40;83.60
75927;DHT22;64605;48.296;16.416;2023-04-08T04:09:53;5.40;81.00
75927;DHT22;64605;48.296;16.416;2023-04-08T04:12:22;5.30;82.70
75927;DHT22;64605;48.296;16.416;2023-04-08T04:14:47;5.30;82.20
75927;DHT22;64605;48.296;16.416;2023-04-08T04:17:13;5.40;83.00
75927;DHT22;64605;48.296;16.416;2023-04-08T04:19:39;5.30;82.20
75927;DHT22;64605;48.296;16.416;2023-04-08T04:22:05;5.20;81.50
75927;DHT22;64605;48.296;16.416;2023-04-08T04:24:30;5.20;81.80
75927;DHT22;64605;48.296;16.416;2023-04-08T04:26:56;5.20;82.10
75927;DHT22;64605;48.296;16.416;2023-04-08T04:29:21;5.30;83.50
75927;DHT22;64605;48.296;16.416;2023-04-08T04:31:47;5.40;83.30
75927;DHT22;64605;48.296;16.416;2023-04-08T04:34:13;5.30;80.90
75927;DHT22;64605;48.296;16.416;2023-04-08T04:36:38;5.30;81.50
75927;DHT22;64605;48.296;16.416;2023-04-08T04:39:04;5.30;82.60
75927;DHT22;64605;48.296;16.416;2023-04-08T04:41:30;5.30;81.80
75927;DHT22;64605;48.296;16.416;2023-04-08T04:43:55;5.30;81.90
75927;DHT22;64605;48.296;16.416;2023-04-08T04:46:21;5.40;82.60
75927;DHT22;64605;48.296;16.416;2023-04-08T04:48:46;5.40;82.80
75927;DHT22;64605;48.296;16.416;2023-04-08T04:51:12;5.40;82.50
75927;DHT22;64605;48.296;16.416;2023-04-08T04:53:38;5.40;81.60
75927;DHT22;64605;48.296;16.416;2023-04-08T04:56:04;5.50;83.00
75927;DHT22;64605;48.296;16.416;2023-04-08T04:58:30;5.50;83.00
75927;DHT22;64605;48.296;16.416;2023-04-08T05:00:56;5.50;82.30
75927;DHT22;64605;48.296;16.416;2023-04-08T05:03:22;5.50;82.60
75927;DHT22;64605;48.296;16.416;2023-04-08T05:05:51;5.60;82.40
75927;DHT22;64605;48.296;16.416;2023-04-08T05:08:17;5.50;81.00
75927;DHT22;64605;48.296;16.416;2023-04-08T05:10:43;5.50;82.10
75927;DHT22;64605;48.296;16.416;2023-04-08T05:13:08;5.60;82.90
75927;DHT22;64605;48.296;16.416;2023-04-08T05:15:34;5.70;82.60
75927;DHT22;64605;48.296;16.416;2023-04-08T05:18:00;5.70;81.00
75927;DHT22;64605;48.296;16.416;2023-04-08T05:20:26;5.70;83.00
75927;DHT22;64605;48.296;16.416;2023-04-08T05:22:51;5.80;82.70
75927;DHT22;64605;48.296;16.416;2023-04-08T05:25:17;5.80;80.10
75927;DHT22;64605;48.296;16.416;2023-04-08T05:27:43;5.70;79.90
75927;DHT22;64605;48.296;16.416;2023-04-08T05:30:09;5.60;80.50
75927;DHT22;64605;48.296;16.416;2023-04-08T05:32:34;5.70;81.20
75927;DHT22;64605;48.296;16.416;2023-04-08T05:35:03;5.70;81.10
75927;DHT22;64605;48.296;16.416;2023-04-08T05:37:29;5.80;82.10
75927;DHT22;64605;48.296;16.416;2023-04-08T05:39:56;5.80;82.20
75927;DHT22;64605;48.296;16.416;2023-04-08T05:42:21;5.90;82.30
75927;DHT22;64605;48.296;16.416;2023-04-08T05:44:47;6.00;81.80
75927;DHT22;64605;48.296;16.416;2023-04-08T05:47:13;6.10;81.20
75927;DHT22;64605;48.296;16.416;2023-04-08T05:49:39;6.00;79.90
75927;DHT22;64605;48.296;16.416;2023-04-08T05:52:05;6.00;80.10
75927;DHT22;64605;48.296;16.416;2023-04-08T05:54:31;6.00;80.20
75927;DHT22;64605;48.296;16.416;2023-04-08T05:56:57;6.00;79.20
75927;DHT22;64605;48.296;16.416;2023-04-08T05:59:22;6.10;81.00
75927;DHT22;64605;48.296;16.416;2023-04-08T06:01:48;6.10;81.80
75927;DHT22;64605;48.296;16.416;2023-04-08T06:04:14;6.10;80.80
75927;DHT22;64605;48.296;16.416;2023-04-08T06:06:42;6.20;80.90
75927;DHT22;64605;48.296;16.416;2023-04-08T06:09:07;6.30;80.20
75927;DHT22;64605;48.296;16.416;2023-04-08T06:11:34;6.30;80.20
75927;DHT22;64605;48.296;16.416;2023-04-08T06:14:00;6.30;80.00
75927;DHT22;64605;48.296;16.416;2023-04-08T06:16:26;6.30;81.70
75927;DHT22;64605;48.296;16.416;2023-04-08T06:18:52;6.30;79.80
75927;DHT22;64605;48.296;16.416;2023-04-08T06:21:17;6.40;80.70
75927;DHT22;64605;48.296;16.416;2023-04-08T06:23:43;6.40;80.60
75927;DHT22;64605;48.296;16.416;2023-04-08T06:26:09;6.30;80.20
75927;DHT22;64605;48.296;16.416;2023-04-08T06:28:34;6.40;81.30
75927;DHT22;64605;48.296;16.416;2023-04-08T06:31:00;6.40;80.80
75927;DHT22;64605;48.296;16.416;2023-04-08T06:33:26;6.50;81.70
75927;DHT22;64605;48.296;16.416;2023-04-08T06:36:00;6.50;80.40
75927;DHT22;64605;48.296;16.416;2023-04-08T06:38:27;6.50;80.90
75927;DHT22;64605;48.296;16.416;2023-04-08T06:40:52;6.60;81.30
75927;DHT22;64605;48.296;16.416;2023-04-08T06:43:18;6.70;81.50
75927;DHT22;64605;48.296;16.416;2023-04-08T06:45:43;6.70;81.10
75927;DHT22;64605;48.296;16.416;2023-04-08T06:48:09;6.70;80.70
75927;DHT22;64605;48.296;16.416;2023-04-08T06:50:35;6.80;80.70
75927;DHT22;64605;48.296;16.416;2023-04-08T06:53:00;6.80;79.90
75927;DHT22;64605;48.296;16.416;2023-04-08T06:55:26;6.80;80.30
75927;DHT22;64605;48.296;16.416;2023-04-08T06:57:52;6.80;80.60
75927;DHT22;64605;48.296;16.416;2023-04-08T07:00:17;6.90;80.60
75927;DHT22;64605;48.296;16.416;2023-04-08T07:02:43;7.00;80.30
75927;DHT22;64605;48.296;16.416;2023-04-08T07:05:09;7.00;80.30
75927;DHT22;64605;48.296;16.416;2023-04-08T07:07:35;7.10;80.10
75927;DHT22;64605;48.296;16.416;2023-04-08T07:10:00;7.10;79.60
75927;DHT22;64605;48.296;16.416;2023-04-08T07:12:26;7.20;79.10
75927;DHT22;64605;48.296;16.416;2023-04-08T07:14:52;7.20;79.40
75927;DHT22;64605;48.296;16.416;2023-04-08T07:17:17;7.20;79.60
75927;DHT22;64605;48.296;16.416;2023-04-08T07:19:44;7.30;79.20
75927;DHT22;64605;48.296;16.416;2023-04-08T07:22:09;7.20;78.90
75927;DHT22;64605;48.296;16.416;2023-04-08T07:24:35;7.30;80.60
75927;DHT22;64605;48.296;16.416;2023-04-08T07:27:00;7.40;80.40
75927;DHT22;64605;48.296;16.416;2023-04-08T07:29:26;7.40;80.20
75927;DHT22;64605;48.296;16.416;2023-04-08T07:31:52;7.40;80.20
75927;DHT22;64605;48.296;16.416;2023-04-08T07:34:18;7.40;78.90
75927;DHT22;64605;48.296;16.416;2023-04-08T07:36:43;7.40;80.00
75927;DHT22;64605;48.296;16.416;2023-04-08T07:39:10;7.40;78.90
75927;DHT22;64605;48.296;16.416;2023-04-08T07:41:35;7.40;79.30
75927;DHT22;64605;48.296;16.416;2023-04-08T07:44:01;7.50;79.30
75927;DHT22;64605;48.296;16.416;2023-04-08T07:46:26;7.50;78.80
75927;DHT22;64605;48.296;16.416;2023-04-08T07:48:52;7.60;79.40
75927;DHT22;64605;48.296;16.416;2023-04-08T07:51:18;7.60;79.40
75927;DHT22;64605;48.296;16.416;2023-04-08T07:53:44;7.60;78.60
75927;DHT22;64605;48.296;16.416;2023-04-08T07:56:13;7.60;79.30
75927;DHT22;64605;48.296;16.416;2023-04-08T07:58:39;7.70;79.40
75927;DHT22;64605;48.296;16.416;2023-04-08T08:01:18;7.80;78.80
75927;DHT22;64605;48.296;16.416;2023-04-08T08:03:46;7.80;78.80
75927;DHT22;64605;48.296;16.416;2023-04-08T08:06:12;7.70;76.90
75927;DHT22;64605;48.296;16.416;2023-04-08T08:08:38;7.80;78.60
75927;DHT22;64605;48.296;16.416;2023-04-08T08:11:04;7.60;76.60
75927;DHT22;64605;48.296;16.416;2023-04-08T08:13:30;7.70;77.80
75927;DHT22;64605;48.296;16.416;2023-04-08T08:15:55;7.80;77.60
75927;DHT22;64605;48.296;16.416;2023-04-08T08:18:21;7.80;77.60
75927;DHT22;64605;48.296;16.416;2023-04-08T08:20:47;7.80;77.70
75927;DHT22;64605;48.296;16.416;2023-04-08T08:23:12;7.90;77.70
75927;DHT22;64605;48.296;16.416;2023-04-08T08:25:38;7.90;77.30
75927;DHT22;64605;48.296;16.416;2023-04-08T08:28:04;8.00;78.10
75927;DHT22;64605;48.296;16.416;2023-04-08T08:30:29;8.10;76.60
75927;DHT22;64605;48.296;16.416;2023-04-08T08:32:55;8.00;76.50
75927;DHT22;64605;48.296;16.416;2023-04-08T08:35:23;7.90;76.70
75927;DHT22;64605;48.296;16.416;2023-04-08T08:37:49;8.00;76.60
75927;DHT22;64605;48.296;16.416;2023-04-08T08:40:15;7.90;76.40
75927;DHT22;64605;48.296;16.416;2023-04-08T08:42:48;8.00;77.40
75927;DHT22;64605;48.296;16.416;2023-04-08T08:45:14;8.00;77.20
75927;DHT22;64605;48.296;16.416;2023-04-08T08:47:40;8.10;77.70
75927;DHT22;64605;48.296;16.416;2023-04-08T08:50:06;8.10;77.50
75927;DHT22;64605;48.296;16.416;2023-04-08T08:52:32;8.10;76.50
75927;DHT22;64605;48.296;16.416;2023-04-08T08:54:58;8.10;77.40
75927;DHT22;64605;48.296;16.416;2023-04-08T08:57:24;8.10;77.10
75927;DHT22;64605;48.296;16.416;2023-04-08T08:59:50;8.20;76.60
75927;DHT22;64605;48.296;16.416;2023-04-08T09:02:29;8.20;76.50
75927;DHT22;64605;48.296;16.416;2023-04-08T09:04:59;8.20;76.20
75927;DHT22;64605;48.296;16.416;2023-04-08T09:07:27;8.30;76.40
75927;DHT22;64605;48.296;16.416;2023-04-08T09:09:54;8.30;76.40
75927;DHT22;64605;48.296;16.416;2023-04-08T09:12:21;8.30;75.80
75927;DHT22;64605;48.296;16.416;2023-04-08T09:14:47;8.30;75.90
75927;DHT22;64605;48.296;16.416;2023-04-08T09:17:13;8.30;75.20
75927;DHT22;64605;48.296;16.416;2023-04-08T09:19:39;8.20;74.70
75927;DHT22;64605;48.296;16.416;2023-04-08T09:22:25;8.20;75.80
75927;DHT22;64605;48.296;16.416;2023-04-08T09:24:51;8.20;76.30
75927;DHT22;64605;48.296;16.416;2023-04-08T09:27:32;8.30;76.90
75927;DHT22;64605;48.296;16.416;2023-04-08T09:30:14;8.30;75.60
75927;DHT22;64605;48.296;16.416;2023-04-08T09:32:51;8.30;76.10
75927;DHT22;64605;48.296;16.416;2023-04-08T09:35:18;8.40;76.80
75927;DHT22;64605;48.296;16.416;2023-04-08T09:37:44;8.60;77.00
75927;DHT22;64605;48.296;16.416;2023-04-08T09:40:10;8.70;75.50
75927;DHT22;64605;48.296;16.416;2023-04-08T09:42:43;8.70;74.70
75927;DHT22;64605;48.296;16.416;2023-04-08T09:45:09;8.80;75.40
75927;DHT22;64605;48.296;16.416;2023-04-08T09:48:09;9.00;76.20
75927;DHT22;64605;48.296;16.416;2023-04-08T09:50:42;9.20;76.50
75927;DHT22;64605;48.296;16.416;2023-04-08T09:53:19;9.60;76.40
75927;DHT22;64605;48.296;16.416;2023-04-08T09:55:49;9.80;74.50
75927;DHT22;64605;48.296;16.416;2023-04-08T09:58:19;10.00;74.40
75927;DHT22;64605;48.296;16.416;2023-04-08T10:00:48;10.00;73.20
75927;DHT22;64605;48.296;16.416;2023-04-08T10:03:28;10.10;72.60
75927;DHT22;64605;48.296;16.416;2023-04-08T10:05:54;10.10;72.80
75927;DHT22;64605;48.296;16.416;2023-04-08T10:08:23;10.00;72.40
75927;DHT22;64605;48.296;16.416;2023-04-08T10:10:50;10.00;73.10
75927;DHT22;64605;48.296;16.416;2023-04-08T10:13:16;10.00;73.00
75927;DHT22;64605;48.296;16.416;2023-04-08T10:15:41;10.00;70.40
75927;DHT22;64605;48.296;16.416;2023-04-08T10:25:31;10.00;69.70
75927;DHT22;64605;48.296;16.416;2023-04-08T10:28:13;10.10;70.30
75927;DHT22;64605;48.296;16.416;2023-04-08T10:30:48;10.10;70.30
75927;DHT22;64605;48.296;16.416;2023-04-08T10:33:16;10.30;66.80
75927;DHT22;64605;48.296;16.416;2023-04-08T10:35:46;10.20;68.40
75927;DHT22;64605;48.296;16.416;2023-04-08T10:38:13;10.20;66.50
75927;DHT22;64605;48.296;16.416;2023-04-08T10:40:41;10.20;66.90
75927;DHT22;64605;48.296;16.416;2023-04-08T10:43:08;10.20;67.10
75927;DHT22;64605;48.296;16.416;2023-04-08T10:45:35;10.10;67.20
75927;DHT22;64605;48.296;16.416;2023-04-08T10:50:43;10.00;67.30
75927;DHT22;64605;48.296;16.416;2023-04-08T10:53:09;10.00;66.80
75927;DHT22;64605;48.296;16.416;2023-04-08T10:55:35;10.00;66.90
75927;DHT22;64605;48.296;16.416;2023-04-08T10:58:05;10.00;67.10
75927;DHT22;64605;48.296;16.416;2023-04-08T11:00:36;10.00;66.60
75927;DHT22;64605;48.296;16.416;2023-04-08T11:03:07;10.00;66.10
75927;DHT22;64605;48.296;16.416;2023-04-08T11:05:33;10.00;66.50
75927;DHT22;64605;48.296;16.416;2023-04-08T11:07:59;10.00;65.80
75927;DHT22;64605;48.296;16.416;2023-04-08T11:10:26;10.00;66.30
75927;DHT22;64605;48.296;16.416;2023-04-08T11:12:54;10.00;66.10
75927;DHT22;64605;48.296;16.416;2023-04-08T11:15:21;10.00;66.80
75927;DHT22;64605;48.296;16.416;2023-04-08T11:17:47;9.90;66.00
75927;DHT22;64605;48.296;16.416;2023-04-08T11:20:13;9.90;67.30
75927;DHT22;64605;48.296;16.416;2023-04-08T11:22:39;9.90;66.70
75927;DHT22;64605;48.296;16.416;2023-04-08T11:25:07;9.90;66.90
75927;DHT22;64605;48.296;16.416;2023-04-08T11:27:34;10.00;66.30
75927;DHT22;64605;48.296;16.416;2023-04-08T11:30:01;10.00;66.60
75927;DHT22;64605;48.296;16.416;2023-04-08T11:32:27;9.90;66.30
75927;DHT22;64605;48.296;16.416;2023-04-08T11:34:53;10.00;66.90
75927;DHT22;64605;48.296;16.416;2023-04-08T11:37:19;10.20;66.10
75927;DHT22;64605;48.296;16.416;2023-04-08T11:39:45;10.30;66.20
75927;DHT22;64605;48.296;16.416;2023-04-08T11:42:30;10.30;66.00
75927;DHT22;64605;48.296;16.416;2023-04-08T11:44:56;10.40;66.00
75927;DHT22;64605;48.296;16.416;2023-04-08T11:47:33;10.50;65.30
75927;DHT22;64605;48.296;16.416;2023-04-08T11:49:59;10.60;65.00
75927;DHT22;64605;48.296;16.416;2023-04-08T11:52:45;10.70;65.90
75927;DHT22;64605;48.296;16.416;2023-04-08T11:55:20;10.90;64.30
75927;DHT22;64605;48.296;16.416;2023-04-08T11:57:46;11.00;64.30
75927;DHT22;64605;48.296;16.416;2023-04-08T12:00:13;11.20;63.60
75927;DHT22;64605;48.296;16.416;2023-04-08T12:02:39;11.20;60.90
75927;DHT22;64605;48.296;16.416;2023-04-08T12:05:05;11.20;62.30
75927;DHT22;64605;48.296;16.416;2023-04-08T12:07:32;11.20;60.80
75927;DHT22;64605;48.296;16.416;2023-04-08T12:09:57;11.10;60.40
75927;DHT22;64605;48.296;16.416;2023-04-08T12:12:23;10.90;60.50
75927;DHT22;64605;48.296;16.416;2023-04-08T12:14:49;10.90;61.90
75927;DHT22;64605;48.296;16.416;2023-04-08T12:17:15;10.80;61.90
75927;DHT22;64605;48.296;16.416;2023-04-08T12:19:41;10.70;62.30
75927;DHT22;64605;48.296;16.416;2023-04-08T12:22:06;10.70;62.70
75927;DHT22;64605;48.296;16.416;2023-04-08T12:24:32;10.60;63.20
75927;DHT22;64605;48.296;16.416;2023-04-08T12:26:58;10.60;61.30
75927;DHT22;64605;48.296;16.416;2023-04-08T12:29:23;10.70;60.50
75927;DHT22;64605;48.296;16.416;2023-04-08T12:31:49;10.80;61.00
75927;DHT22;64605;48.296;16.416;2023-04-08T12:34:15;10.90;61.30
75927;DHT22;64605;48.296;16.416;2023-04-08T12:36:41;11.00;61.10
75927;DHT22;64605;48.296;16.416;2023-04-08T12:39:07;11.20;61.90
75927;DHT22;64605;48.296;16.416;2023-04-08T12:41:33;11.60;60.80
75927;DHT22;64605;48.296;16.416;2023-04-08T12:43:58;11.80;61.00
75927;DHT22;64605;48.296;16.416;2023-04-08T12:46:25;12.00;59.90
75927;DHT22;64605;48.296;16.416;2023-04-08T12:48:51;12.20;58.00
75927;DHT22;64605;48.296;16.416;2023-04-08T12:51:16;12.20;57.60
75927;DHT22;64605;48.296;16.416;2023-04-08T12:53:42;12.20;57.00
75927;DHT22;64605;48.296;16.416;2023-04-08T12:56:08;12.20;55.50
75927;DHT22;64605;48.296;16.416;2023-04-08T12:58:34;12.20;55.20
75927;DHT22;64605;48.296;16.416;2023-04-08T13:00:59;12.00;56.80
75927;DHT22;64605;48.296;16.416;2023-04-08T13:03:25;12.00;56.00
75927;DHT22;64605;48.296;16.416;2023-04-08T13:05:53;11.90;55.40
75927;DHT22;64605;48.296;16.416;2023-04-08T13:08:19;11.80;56.10
75927;DHT22;64605;48.296;16.416;2023-04-08T13:10:44;11.80;56.20
75927;DHT22;64605;48.296;16.416;2023-04-08T13:13:10;11.80;56.70
75927;DHT22;64605;48.296;16.416;2023-04-08T13:15:38;11.80;58.10
75927;DHT22;64605;48.296;16.416;2023-04-08T13:18:04;11.80;58.00
75927;DHT22;64605;48.296;16.416;2023-04-08T13:20:30;11.60;57.80
75927;DHT22;64605;48.296;16.416;2023-04-08T13:22:55;11.60;57.10
75927;DHT22;64605;48.296;16.416;2023-04-08T13:25:21;11.50;59.00
75927;DHT22;64605;48.296;16.416;2023-04-08T13:27:47;11.40;59.10
75927;DHT22;64605;48.296;16.416;2023-04-08T13:30:13;11.30;58.00
75927;DHT22;64605;48.296;16.416;2023-04-08T13:32:38;11.20;58.70
75927;DHT22;64605;48.296;16.416;2023-04-08T13:35:04;11.20;56.80
75927;DHT22;64605;48.296;16.416;2023-04-08T13:37:30;11.10;58.40
75927;DHT22;64605;48.296;16.416;2023-04-08T13:39:56;11.10;59.70
75927;DHT22;64605;48.296;16.416;2023-04-08T13:42:22;11.20;59.30
75927;DHT22;64605;48.296;16.416;2023-04-08T13:44:48;11.20;59.10
75927;DHT22;64605;48.296;16.416;2023-04-08T13:47:13;11.20;58.90
75927;DHT22;64605;48.296;16.416;2023-04-08T13:49:39;11.10;57.60
75927;DHT22;64605;48.296;16.416;2023-04-08T13:52:05;11.10;58.20
75927;DHT22;64605;48.296;16.416;2023-04-08T13:54:31;11.10;59.50
75927;DHT22;64605;48.296;16.416;2023-04-08T13:56:56;11.10;58.50
75927;DHT22;64605;48.296;16.416;2023-04-08T13:59:22;11.10;58.30
75927;DHT22;64605;48.296;16.416;2023-04-08T14:01:48;11.10;57.30
75927;DHT22;64605;48.296;16.416;2023-04-08T14:04:18;11.00;57.40
75927;DHT22;64605;48.296;16.416;2023-04-08T14:06:44;11.00;56.70
75927;DHT22;64605;48.296;16.416;2023-04-08T14:09:10;11.00;56.80
75927;DHT22;64605;48.296;16.416;2023-04-08T14:11:36;11.00;58.10
75927;DHT22;64605;48.296;16.416;2023-04-08T14:14:02;11.00;57.70
75927;DHT22;64605;48.296;16.416;2023-04-08T14:16:28;10.90;57.40
75927;DHT22;64605;48.296;16.416;2023-04-08T14:18:56;10.90;56.70
75927;DHT22;64605;48.296;16.416;2023-04-08T14:21:22;11.00;58.20
75927;DHT22;64605;48.296;16.416;2023-04-08T14:23:48;11.00;58.10
75927;DHT22;64605;48.296;16.416;2023-04-08T14:26:13;11.20;57.20
75927;DHT22;64605;48.296;16.416;2023-04-08T14:28:39;11.30;56.20
75927;DHT22;64605;48.296;16.416;2023-04-08T14:31:04;11.60;56.60
75927;DHT22;64605;48.296;16.416;2023-04-08T14:33:30;12.00;56.10
75927;DHT22;64605;48.296;16.416;2023-04-08T14:35:56;12.30;54.50
75927;DHT22;64605;48.296;16.416;2023-04-08T14:38:23;12.50;54.40
75927;DHT22;64605;48.296;16.416;2023-04-08T14:40:49;12.50;55.10
75927;DHT22;64605;48.296;16.416;2023-04-08T14:43:15;12.40;53.60
75927;DHT22;64605;48.296;16.416;2023-04-08T14:45:40;12.30;54.30
75927;DHT22;64605;48.296;16.416;2023-04-08T14:48:06;12.20;53.30
75927;DHT22;64605;48.296;16.416;2023-04-08T14:50:32;12.00;54.10
75927;DHT22;64605;48.296;16.416;2023-04-08T14:52:58;11.90;55.50
75927;DHT22;64605;48.296;16.416;2023-04-08T14:55:23;11.80;55.80
75927;DHT22;64605;48.296;16.416;2023-04-08T14:57:50;11.70;55.40
75927;DHT22;64605;48.296;16.416;2023-04-08T15:00:15;11.60;55.70
75927;DHT22;64605;48.296;16.416;2023-04-08T15:02:41;11.50;56.70
75927;DHT22;64605;48.296;16.416;2023-04-08T15:05:07;11.40;55.40
75927;DHT22;64605;48.296;16.416;2023-04-08T15:07:33;11.30;56.80
75927;DHT22;64605;48.296;16.416;2023-04-08T15:09:58;11.30;57.00
75927;DHT22;64605;48.296;16.416;2023-04-08T15:12:24;11.30;57.70
75927;DHT22;64605;48.296;16.416;2023-04-08T15:14:50;11.30;58.30
75927;DHT22;64605;48.296;16.416;2023-04-08T15:17:16;11.30;59.30
75927;DHT22;64605;48.296;16.416;2023-04-08T15:19:45;11.30;58.40
75927;DHT22;64605;48.296;16.416;2023-04-08T15:22:11;11.30;59.20
75927;DHT22;64605;48.296;16.416;2023-04-08T15:24:37;11.20;59.00
75927;DHT22;64605;48.296;16.416;2023-04-08T15:27:03;11.20;58.10
75927;DHT22;64605;48.296;16.416;2023-04-08T15:29:28;11.00;58.20
75927;DHT22;64605;48.296;16.416;2023-04-08T15:31:54;11.00;58.80
75927;DHT22;64605;48.296;16.416;2023-04-08T15:34:20;10.80;58.70
75927;DHT22;64605;48.296;16.416;2023-04-08T15:36:46;10.90;59.80
75927;DHT22;64605;48.296;16.416;2023-04-08T15:39:12;10.90;60.10